sensor_id;sensor_type;location;lat;lon;timestamp;P1;durP1;ratioP1;P2;durP2;ratioP2
37237;SDS011;23129;49.662;8.448;2023-07-29T00:00:23;8.43;;;4.65;;
37237;SDS011;23129;49.662;8.448;2023-07-29T00:02:53;7.63;;;5.13;;
37237;SDS011;23129;49.662;8.448;2023-07-29T00:05:21;15.43;;;5.43;;
37237;SDS011;23129;49.662;8.448;2023-07-29T00:07:50;6.05;;;5.03;;
37237;SDS011;23129;49.662;8.448;2023-07-29T00:10:20;13.98;;;5.60;;
37237;SDS011;23129;49.662;8.448;2023-07-29T00:12:48;10.90;;;4.40;;
37237;SDS011;23129;49.662;8.448;2023-07-29T00:15:17;6.75;;;4.28;;
37237;SDS011;23129;49.662;8.448;2023-07-29T00:17:46;9.90;;;4.45;;
37237;SDS011;23129;49.662;8.448;2023-07-29T00:20:14;8.50;;;4.72;;
37237;SDS011;23129;49.662;8.448;2023-07-29T00:22:43;7.32;;;4.60;;
37237;SDS011;23129;49.662;8.448;2023-07-29T00:25:11;10.05;;;3.58;;
37237;SDS011;23129;49.662;8.448;2023-07-29T00:27:41;7.18;;;4.65;;
37237;SDS011;23129;49.662;8.448;2023-07-29T00:30:10;4.15;;;3.35;;
37237;SDS011;23129;49.662;8.448;2023-07-29T00:32:39;4.93;;;3.97;;
37237;SDS011;23129;49.662;8.448;2023-07-29T00:35:08;7.55;;;3.90;;
37237;SDS011;23129;49.662;8.448;2023-07-29T00:37:37;7.03;;;3.42;;
37237;SDS011;23129;49.662;8.448;2023-07-29T00:40:09;10.32;;;4.07;;
37237;SDS011;23129;49.662;8.448;2023-07-29T00:42:44;6.10;;;4.03;;
37237;SDS011;23129;49.662;8.448;2023-07-29T00:45:13;8.95;;;3.75;;
37237;SDS011;23129;49.662;8.448;2023-07-29T00:47:41;8.70;;;4.07;;
37237;SDS011;23129;49.662;8.448;2023-07-29T00:50:11;5.80;;;3.75;;
37237;SDS011;23129;49.662;8.448;2023-07-29T00:52:40;5.90;;;3.20;;
37237;SDS011;23129;49.662;8.448;2023-07-29T00:55:09;6.40;;;4.32;;
37237;SDS011;23129;49.662;8.448;2023-07-29T00:57:37;7.40;;;4.03;;
37237;SDS011;23129;49.662;8.448;2023-07-29T01:00:08;5.32;;;3.45;;
37237;SDS011;23129;49.662;8.448;2023-07-29T01:02:37;5.45;;;4.05;;
37237;SDS011;23129;49.662;8.448;2023-07-29T01:05:06;4.60;;;3.30;;
37237;SDS011;23129;49.662;8.448;2023-07-29T01:07:37;5.00;;;3.88;;
37237;SDS011;23129;49.662;8.448;2023-07-29T01:10:13;8.48;;;3.13;;
37237;SDS011;23129;49.662;8.448;2023-07-29T01:12:51;4.55;;;3.75;;
37237;SDS011;23129;49.662;8.448;2023-07-29T01:15:28;10.98;;;3.95;;
37237;SDS011;23129;49.662;8.448;2023-07-29T01:18:04;8.88;;;3.35;;
37237;SDS011;23129;49.662;8.448;2023-07-29T01:20:37;6.18;;;3.20;;
37237;SDS011;23129;49.662;8.448;2023-07-29T01:23:07;4.07;;;3.50;;
37237;SDS011;23129;49.662;8.448;2023-07-29T01:25:37;5.78;;;4.03;;
37237;SDS011;23129;49.662;8.448;2023-07-29T01:28:06;4.20;;;3.38;;
37237;SDS011;23129;49.662;8.448;2023-07-29T01:30:37;9.57;;;4.22;;
37237;SDS011;23129;49.662;8.448;2023-07-29T01:33:09;9.93;;;3.05;;
37237;SDS011;23129;49.662;8.448;2023-07-29T01:35:45;3.58;;;3.03;;
37237;SDS011;23129;49.662;8.448;2023-07-29T01:38:18;7.68;;;2.65;;
37237;SDS011;23129;49.662;8.448;2023-07-29T01:40:52;3.00;;;2.60;;
37237;SDS011;23129;49.662;8.448;2023-07-29T01:43:21;5.25;;;3.30;;
37237;SDS011;23129;49.662;8.448;2023-07-29T01:45:52;5.53;;;2.75;;
37237;SDS011;23129;49.662;8.448;2023-07-29T01:48:22;4.00;;;2.60;;
37237;SDS011;23129;49.662;8.448;2023-07-29T01:50:50;5.65;;;2.92;;
37237;SDS011;23129;49.662;8.448;2023-07-29T01:53:19;5.57;;;3.42;;
37237;SDS011;23129;49.662;8.448;2023-07-29T01:55:47;10.50;;;2.92;;
37237;SDS011;23129;49.662;8.448;2023-07-29T01:58:18;6.60;;;3.60;;
37237;SDS011;23129;49.662;8.448;2023-07-29T02:00:47;3.88;;;3.17;;
37237;SDS011;23129;49.662;8.448;2023-07-29T02:03:16;6.22;;;3.33;;
37237;SDS011;23129;49.662;8.448;2023-07-29T02:05:44;12.82;;;3.45;;
37237;SDS011;23129;49.662;8.448;2023-07-29T02:08:13;5.95;;;3.38;;
37237;SDS011;23129;49.662;8.448;2023-07-29T02:10:42;3.75;;;2.92;;
37237;SDS011;23129;49.662;8.448;2023-07-29T02:13:11;7.57;;;3.03;;
37237;SDS011;23129;49.662;8.448;2023-07-29T02:15:42;6.15;;;3.20;;
37237;SDS011;23129;49.662;8.448;2023-07-29T02:18:10;8.95;;;3.42;;
37237;SDS011;23129;49.662;8.448;2023-07-29T02:20:39;4.18;;;3.03;;
37237;SDS011;23129;49.662;8.448;2023-07-29T02:23:15;5.97;;;3.50;;
37237;SDS011;23129;49.662;8.448;2023-07-29T02:25:44;7.15;;;3.85;;
37237;SDS011;23129;49.662;8.448;2023-07-29T02:28:13;6.07;;;3.28;;
37237;SDS011;23129;49.662;8.448;2023-07-29T02:30:43;5.80;;;3.50;;
37237;SDS011;23129;49.662;8.448;2023-07-29T02:33:12;3.55;;;3.25;;
37237;SDS011;23129;49.662;8.448;2023-07-29T02:35:41;6.25;;;3.60;;
37237;SDS011;23129;49.662;8.448;2023-07-29T02:38:10;5.68;;;3.72;;
37237;SDS011;23129;49.662;8.448;2023-07-29T02:40:38;6.57;;;3.33;;
37237;SDS011;23129;49.662;8.448;2023-07-29T02:43:07;5.55;;;3.67;;
37237;SDS011;23129;49.662;8.448;2023-07-29T02:45:36;10.85;;;3.78;;
37237;SDS011;23129;49.662;8.448;2023-07-29T02:48:06;5.93;;;3.80;;
37237;SDS011;23129;49.662;8.448;2023-07-29T02:50:36;9.00;;;4.30;;
37237;SDS011;23129;49.662;8.448;2023-07-29T02:53:04;4.75;;;3.08;;
37237;SDS011;23129;49.662;8.448;2023-07-29T02:55:33;7.05;;;3.28;;
37237;SDS011;23129;49.662;8.448;2023-07-29T02:58:02;8.82;;;3.53;;
37237;SDS011;23129;49.662;8.448;2023-07-29T03:00:30;10.75;;;3.75;;
37237;SDS011;23129;49.662;8.448;2023-07-29T03:03:00;5.85;;;3.40;;
37237;SDS011;23129;49.662;8.448;2023-07-29T03:05:30;9.57;;;3.55;;
37237;SDS011;23129;49.662;8.448;2023-07-29T03:07:58;5.47;;;2.85;;
37237;SDS011;23129;49.662;8.448;2023-07-29T03:10:27;3.35;;;3.10;;
37237;SDS011;23129;49.662;8.448;2023-07-29T03:12:56;3.33;;;2.75;;
37237;SDS011;23129;49.662;8.448;2023-07-29T03:15:24;4.75;;;3.22;;
37237;SDS011;23129;49.662;8.448;2023-07-29T03:17:53;9.35;;;2.95;;
37237;SDS011;23129;49.662;8.448;2023-07-29T03:20:22;4.53;;;2.88;;
37237;SDS011;23129;49.662;8.448;2023-07-29T03:22:52;3.92;;;2.83;;
37237;SDS011;23129;49.662;8.448;2023-07-29T03:25:20;5.88;;;3.00;;
37237;SDS011;23129;49.662;8.448;2023-07-29T03:27:49;3.40;;;2.88;;
37237;SDS011;23129;49.662;8.448;2023-07-29T03:30:19;5.05;;;3.13;;
37237;SDS011;23129;49.662;8.448;2023-07-29T03:32:49;4.78;;;3.40;;
37237;SDS011;23129;49.662;8.448;2023-07-29T03:35:18;4.50;;;2.92;;
37237;SDS011;23129;49.662;8.448;2023-07-29T03:37:47;7.75;;;3.60;;
37237;SDS011;23129;49.662;8.448;2023-07-29T03:40:18;4.57;;;2.85;;
37237;SDS011;23129;49.662;8.448;2023-07-29T03:42:47;3.70;;;3.13;;
37237;SDS011;23129;49.662;8.448;2023-07-29T03:45:15;8.27;;;3.33;;
37237;SDS011;23129;49.662;8.448;2023-07-29T03:47:44;7.63;;;3.03;;
37237;SDS011;23129;49.662;8.448;2023-07-29T03:50:13;6.00;;;3.22;;
37237;SDS011;23129;49.662;8.448;2023-07-29T03:52:42;6.38;;;3.28;;
37237;SDS011;23129;49.662;8.448;2023-07-29T03:55:11;4.30;;;3.15;;
37237;SDS011;23129;49.662;8.448;2023-07-29T03:57:41;5.22;;;2.63;;
37237;SDS011;23129;49.662;8.448;2023-07-29T04:00:09;3.33;;;2.55;;
37237;SDS011;23129;49.662;8.448;2023-07-29T04:02:41;3.38;;;3.00;;
37237;SDS011;23129;49.662;8.448;2023-07-29T04:05:12;7.57;;;3.22;;
37237;SDS011;23129;49.662;8.448;2023-07-29T04:07:41;4.90;;;3.10;;
37237;SDS011;23129;49.662;8.448;2023-07-29T04:10:09;6.45;;;3.53;;
37237;SDS011;23129;49.662;8.448;2023-07-29T04:12:38;6.35;;;3.33;;
37237;SDS011;23129;49.662;8.448;2023-07-29T04:15:08;4.75;;;3.00;;
37237;SDS011;23129;49.662;8.448;2023-07-29T04:17:37;4.15;;;3.60;;
37237;SDS011;23129;49.662;8.448;2023-07-29T04:20:06;4.00;;;2.90;;
37237;SDS011;23129;49.662;8.448;2023-07-29T04:22:35;12.15;;;3.40;;
37237;SDS011;23129;49.662;8.448;2023-07-29T04:25:04;3.13;;;2.88;;
37237;SDS011;23129;49.662;8.448;2023-07-29T04:27:34;11.90;;;2.88;;
37237;SDS011;23129;49.662;8.448;2023-07-29T04:30:04;3.85;;;2.55;;
37237;SDS011;23129;49.662;8.448;2023-07-29T04:32:33;6.35;;;3.28;;
37237;SDS011;23129;49.662;8.448;2023-07-29T04:35:06;5.85;;;3.67;;
37237;SDS011;23129;49.662;8.448;2023-07-29T04:37:36;7.90;;;3.35;;
37237;SDS011;23129;49.662;8.448;2023-07-29T04:40:05;5.90;;;3.65;;
37237;SDS011;23129;49.662;8.448;2023-07-29T04:42:34;4.60;;;3.88;;
37237;SDS011;23129;49.662;8.448;2023-07-29T04:45:06;13.45;;;3.60;;
37237;SDS011;23129;49.662;8.448;2023-07-29T04:47:35;15.43;;;3.72;;
37237;SDS011;23129;49.662;8.448;2023-07-29T04:50:04;6.38;;;3.60;;
37237;SDS011;23129;49.662;8.448;2023-07-29T04:52:33;6.07;;;3.25;;
37237;SDS011;23129;49.662;8.448;2023-07-29T04:55:02;6.85;;;4.13;;
37237;SDS011;23129;49.662;8.448;2023-07-29T04:57:31;7.70;;;3.70;;
37237;SDS011;23129;49.662;8.448;2023-07-29T05:00:00;6.53;;;3.95;;
37237;SDS011;23129;49.662;8.448;2023-07-29T05:02:31;5.22;;;3.63;;
37237;SDS011;23129;49.662;8.448;2023-07-29T05:05:00;6.15;;;3.53;;
37237;SDS011;23129;49.662;8.448;2023-07-29T05:07:29;4.00;;;3.53;;
37237;SDS011;23129;49.662;8.448;2023-07-29T05:09:57;5.57;;;4.50;;
37237;SDS011;23129;49.662;8.448;2023-07-29T05:12:26;5.20;;;3.30;;
37237;SDS011;23129;49.662;8.448;2023-07-29T05:14:55;9.18;;;3.65;;
37237;SDS011;23129;49.662;8.448;2023-07-29T05:17:24;5.72;;;3.90;;
37237;SDS011;23129;49.662;8.448;2023-07-29T05:19:54;9.35;;;3.58;;
37237;SDS011;23129;49.662;8.448;2023-07-29T05:22:23;8.73;;;4.18;;
37237;SDS011;23129;49.662;8.448;2023-07-29T05:24:52;6.72;;;3.50;;
37237;SDS011;23129;49.662;8.448;2023-07-29T05:27:20;5.53;;;3.60;;
37237;SDS011;23129;49.662;8.448;2023-07-29T05:29:49;6.03;;;3.53;;
37237;SDS011;23129;49.662;8.448;2023-07-29T05:32:18;5.35;;;3.78;;
37237;SDS011;23129;49.662;8.448;2023-07-29T05:34:47;11.45;;;4.05;;
37237;SDS011;23129;49.662;8.448;2023-07-29T05:37:17;3.80;;;3.50;;
37237;SDS011;23129;49.662;8.448;2023-07-29T05:39:45;9.63;;;3.92;;
37237;SDS011;23129;49.662;8.448;2023-07-29T05:42:14;8.32;;;4.47;;
37237;SDS011;23129;49.662;8.448;2023-07-29T05:44:43;8.50;;;5.07;;
37237;SDS011;23129;49.662;8.448;2023-07-29T05:47:11;9.07;;;4.43;;
37237;SDS011;23129;49.662;8.448;2023-07-29T05:49:40;7.43;;;4.70;;
37237;SDS011;23129;49.662;8.448;2023-07-29T05:52:09;13.00;;;5.57;;
37237;SDS011;23129;49.662;8.448;2023-07-29T05:54:39;10.38;;;4.38;;
37237;SDS011;23129;49.662;8.448;2023-07-29T05:57:09;5.60;;;4.95;;
37237;SDS011;23129;49.662;8.448;2023-07-29T05:59:38;5.07;;;3.88;;
37237;SDS011;23129;49.662;8.448;2023-07-29T06:02:07;13.32;;;4.72;;
37237;SDS011;23129;49.662;8.448;2023-07-29T06:04:35;6.78;;;3.85;;
37237;SDS011;23129;49.662;8.448;2023-07-29T06:07:04;5.90;;;4.05;;
37237;SDS011;23129;49.662;8.448;2023-07-29T06:09:34;4.93;;;3.95;;
37237;SDS011;23129;49.662;8.448;2023-07-29T06:12:04;5.97;;;3.42;;
37237;SDS011;23129;49.662;8.448;2023-07-29T06:14:33;3.97;;;3.55;;
37237;SDS011;23129;49.662;8.448;2023-07-29T06:17:02;7.90;;;4.10;;
37237;SDS011;23129;49.662;8.448;2023-07-29T06:19:33;7.78;;;4.47;;
37237;SDS011;23129;49.662;8.448;2023-07-29T06:22:02;5.70;;;3.90;;
37237;SDS011;23129;49.662;8.448;2023-07-29T06:24:32;5.10;;;4.28;;
37237;SDS011;23129;49.662;8.448;2023-07-29T06:27:00;4.55;;;3.88;;
37237;SDS011;23129;49.662;8.448;2023-07-29T06:29:30;5.53;;;4.10;;
37237;SDS011;23129;49.662;8.448;2023-07-29T06:31:59;6.80;;;4.32;;
37237;SDS011;23129;49.662;8.448;2023-07-29T06:34:28;9.13;;;4.70;;
37237;SDS011;23129;49.662;8.448;2023-07-29T06:36:57;10.00;;;4.20;;
37237;SDS011;23129;49.662;8.448;2023-07-29T06:39:25;7.38;;;4.35;;
37237;SDS011;23129;49.662;8.448;2023-07-29T06:41:54;5.78;;;4.25;;
37237;SDS011;23129;49.662;8.448;2023-07-29T06:44:23;9.43;;;3.80;;
37237;SDS011;23129;49.662;8.448;2023-07-29T06:46:53;6.47;;;3.38;;
37237;SDS011;23129;49.662;8.448;2023-07-29T06:49:21;16.77;;;3.40;;
37237;SDS011;23129;49.662;8.448;2023-07-29T06:51:50;6.18;;;3.05;;
37237;SDS011;23129;49.662;8.448;2023-07-29T06:54:19;6.13;;;2.80;;
37237;SDS011;23129;49.662;8.448;2023-07-29T06:56:52;9.43;;;2.75;;
37237;SDS011;23129;49.662;8.448;2023-07-29T06:59:21;5.00;;;2.10;;
37237;SDS011;23129;49.662;8.448;2023-07-29T07:01:50;6.85;;;2.38;;
37237;SDS011;23129;49.662;8.448;2023-07-29T07:04:21;10.85;;;1.90;;
37237;SDS011;23129;49.662;8.448;2023-07-29T07:06:49;1.55;;;1.45;;
37237;SDS011;23129;49.662;8.448;2023-07-29T07:09:19;7.22;;;2.03;;
37237;SDS011;23129;49.662;8.448;2023-07-29T07:11:47;3.03;;;2.03;;
37237;SDS011;23129;49.662;8.448;2023-07-29T07:14:15;8.13;;;1.95;;
37237;SDS011;23129;49.662;8.448;2023-07-29T07:16:44;1.25;;;1.15;;
37237;SDS011;23129;49.662;8.448;2023-07-29T07:19:14;10.13;;;2.17;;
37237;SDS011;23129;49.662;8.448;2023-07-29T07:21:43;12.02;;;2.45;;
37237;SDS011;23129;49.662;8.448;2023-07-29T07:24:12;4.10;;;2.45;;
37237;SDS011;23129;49.662;8.448;2023-07-29T07:26:40;3.05;;;2.75;;
37237;SDS011;23129;49.662;8.448;2023-07-29T07:29:09;5.93;;;3.40;;
37237;SDS011;23129;49.662;8.448;2023-07-29T07:31:37;10.18;;;5.43;;
37237;SDS011;23129;49.662;8.448;2023-07-29T07:34:06;3.65;;;3.30;;
37237;SDS011;23129;49.662;8.448;2023-07-29T07:36:36;6.45;;;4.85;;
37237;SDS011;23129;49.662;8.448;2023-07-29T07:39:07;3.13;;;2.92;;
37237;SDS011;23129;49.662;8.448;2023-07-29T07:41:36;3.05;;;2.85;;
37237;SDS011;23129;49.662;8.448;2023-07-29T07:44:07;3.47;;;3.28;;
37237;SDS011;23129;49.662;8.448;2023-07-29T07:46:37;3.22;;;2.92;;
37237;SDS011;23129;49.662;8.448;2023-07-29T07:49:06;5.65;;;4.32;;
37237;SDS011;23129;49.662;8.448;2023-07-29T07:51:36;4.45;;;4.05;;
37237;SDS011;23129;49.662;8.448;2023-07-29T07:54:05;3.80;;;2.75;;
37237;SDS011;23129;49.662;8.448;2023-07-29T07:56:33;2.55;;;1.20;;
37237;SDS011;23129;49.662;8.448;2023-07-29T07:59:02;1.52;;;0.50;;
37237;SDS011;23129;49.662;8.448;2023-07-29T08:01:33;1.85;;;1.00;;
37237;SDS011;23129;49.662;8.448;2023-07-29T08:04:03;3.60;;;0.60;;
37237;SDS011;23129;49.662;8.448;2023-07-29T08:06:32;7.30;;;0.88;;
37237;SDS011;23129;49.662;8.448;2023-07-29T08:09:03;2.70;;;0.80;;
37237;SDS011;23129;49.662;8.448;2023-07-29T08:11:32;3.42;;;0.90;;
37237;SDS011;23129;49.662;8.448;2023-07-29T08:14:01;3.10;;;0.75;;
37237;SDS011;23129;49.662;8.448;2023-07-29T08:16:29;0.82;;;0.77;;
37237;SDS011;23129;49.662;8.448;2023-07-29T08:18:58;0.90;;;0.73;;
37237;SDS011;23129;49.662;8.448;2023-07-29T08:21:26;0.70;;;0.70;;
37237;SDS011;23129;49.662;8.448;2023-07-29T08:23:55;0.90;;;0.50;;
37237;SDS011;23129;49.662;8.448;2023-07-29T08:26:25;7.80;;;0.93;;
37237;SDS011;23129;49.662;8.448;2023-07-29T08:28:54;1.98;;;0.60;;
37237;SDS011;23129;49.662;8.448;2023-07-29T08:31:22;9.90;;;1.13;;
37237;SDS011;23129;49.662;8.448;2023-07-29T08:33:50;0.52;;;0.52;;
37237;SDS011;23129;49.662;8.448;2023-07-29T08:36:19;0.95;;;0.68;;
37237;SDS011;23129;49.662;8.448;2023-07-29T08:38:47;7.97;;;1.15;;
37237;SDS011;23129;49.662;8.448;2023-07-29T08:41:16;2.92;;;0.68;;
37237;SDS011;23129;49.662;8.448;2023-07-29T08:43:52;1.38;;;0.98;;
37237;SDS011;23129;49.662;8.448;2023-07-29T08:46:29;3.83;;;0.80;;
37237;SDS011;23129;49.662;8.448;2023-07-29T08:48:58;2.53;;;0.82;;
37237;SDS011;23129;49.662;8.448;2023-07-29T08:51:28;0.82;;;0.68;;
37237;SDS011;23129;49.662;8.448;2023-07-29T08:53:58;1.60;;;0.70;;
37237;SDS011;23129;49.662;8.448;2023-07-29T08:56:27;0.60;;;0.60;;
37237;SDS011;23129;49.662;8.448;2023-07-29T08:58:58;1.38;;;0.73;;
37237;SDS011;23129;49.662;8.448;2023-07-29T09:01:28;2.30;;;0.55;;
37237;SDS011;23129;49.662;8.448;2023-07-29T09:03:57;0.55;;;0.55;;
37237;SDS011;23129;49.662;8.448;2023-07-29T09:06:26;3.25;;;1.00;;
37237;SDS011;23129;49.662;8.448;2023-07-29T09:08:54;1.95;;;0.82;;
37237;SDS011;23129;49.662;8.448;2023-07-29T09:11:24;3.83;;;0.80;;
37237;SDS011;23129;49.662;8.448;2023-07-29T09:13:52;2.35;;;0.60;;
37237;SDS011;23129;49.662;8.448;2023-07-29T09:16:23;1.25;;;0.85;;
37237;SDS011;23129;49.662;8.448;2023-07-29T09:18:52;1.60;;;0.93;;
37237;SDS011;23129;49.662;8.448;2023-07-29T09:21:22;1.52;;;0.93;;
37237;SDS011;23129;49.662;8.448;2023-07-29T09:23:53;1.73;;;1.27;;
37237;SDS011;23129;49.662;8.448;2023-07-29T09:26:22;1.20;;;1.10;;
37237;SDS011;23129;49.662;8.448;2023-07-29T09:28:51;1.42;;;1.00;;
37237;SDS011;23129;49.662;8.448;2023-07-29T09:31:21;0.98;;;0.90;;
37237;SDS011;23129;49.662;8.448;2023-07-29T09:33:55;2.75;;;1.13;;
37237;SDS011;23129;49.662;8.448;2023-07-29T09:36:25;1.10;;;1.00;;
37237;SDS011;23129;49.662;8.448;2023-07-29T09:38:55;2.20;;;0.80;;
37237;SDS011;23129;49.662;8.448;2023-07-29T09:41:24;1.10;;;0.90;;
37237;SDS011;23129;49.662;8.448;2023-07-29T09:43:57;1.05;;;0.75;;
37237;SDS011;23129;49.662;8.448;2023-07-29T09:46:32;1.98;;;0.60;;
37237;SDS011;23129;49.662;8.448;2023-07-29T09:49:03;1.35;;;1.00;;
37237;SDS011;23129;49.662;8.448;2023-07-29T09:51:36;4.75;;;1.20;;
37237;SDS011;23129;49.662;8.448;2023-07-29T09:54:06;2.28;;;0.90;;
37237;SDS011;23129;49.662;8.448;2023-07-29T09:56:39;0.90;;;0.90;;
37237;SDS011;23129;49.662;8.448;2023-07-29T09:59:11;4.57;;;1.23;;
37237;SDS011;23129;49.662;8.448;2023-07-29T10:01:41;0.63;;;0.63;;
37237;SDS011;23129;49.662;8.448;2023-07-29T10:04:09;0.82;;;0.70;;
37237;SDS011;23129;49.662;8.448;2023-07-29T10:06:41;1.38;;;0.90;;
37237;SDS011;23129;49.662;8.448;2023-07-29T10:09:10;0.82;;;0.77;;
37237;SDS011;23129;49.662;8.448;2023-07-29T10:11:40;1.02;;;0.95;;
37237;SDS011;23129;49.662;8.448;2023-07-29T10:14:09;2.88;;;1.08;;
37237;SDS011;23129;49.662;8.448;2023-07-29T10:16:38;1.80;;;1.00;;
37237;SDS011;23129;49.662;8.448;2023-07-29T10:19:11;3.88;;;1.05;;
37237;SDS011;23129;49.662;8.448;2023-07-29T10:21:43;1.05;;;0.70;;
37237;SDS011;23129;49.662;8.448;2023-07-29T10:24:17;1.52;;;0.80;;
37237;SDS011;23129;49.662;8.448;2023-07-29T10:26:55;1.30;;;0.90;;
37237;SDS011;23129;49.662;8.448;2023-07-29T10:29:28;4.63;;;0.70;;
37237;SDS011;23129;49.662;8.448;2023-07-29T10:32:02;3.05;;;0.90;;
37237;SDS011;23129;49.662;8.448;2023-07-29T10:34:31;1.55;;;0.70;;
37237;SDS011;23129;49.662;8.448;2023-07-29T10:37:02;3.83;;;1.45;;
37237;SDS011;23129;49.662;8.448;2023-07-29T10:39:36;4.85;;;0.68;;
37237;SDS011;23129;49.662;8.448;2023-07-29T10:42:06;2.70;;;0.85;;
37237;SDS011;23129;49.662;8.448;2023-07-29T10:44:47;0.90;;;0.80;;
37237;SDS011;23129;49.662;8.448;2023-07-29T10:47:20;1.20;;;1.10;;
37237;SDS011;23129;49.662;8.448;2023-07-29T10:49:52;1.05;;;0.75;;
37237;SDS011;23129;49.662;8.448;2023-07-29T10:52:32;1.40;;;0.95;;
37237;SDS011;23129;49.662;8.448;2023-07-29T10:55:24;2.47;;;0.80;;
37237;SDS011;23129;49.662;8.448;2023-07-29T11:00:41;1.42;;;0.75;;
37237;SDS011;23129;49.662;8.448;2023-07-29T11:03:12;2.08;;;1.00;;
37237;SDS011;23129;49.662;8.448;2023-07-29T11:05:43;2.42;;;1.10;;
37237;SDS011;23129;49.662;8.448;2023-07-29T11:08:18;1.15;;;1.05;;
37237;SDS011;23129;49.662;8.448;2023-07-29T11:10:57;1.33;;;1.00;;
37237;SDS011;23129;49.662;8.448;2023-07-29T11:13:31;1.98;;;0.68;;
37237;SDS011;23129;49.662;8.448;2023-07-29T11:16:01;4.50;;;1.02;;
37237;SDS011;23129;49.662;8.448;2023-07-29T11:18:32;1.05;;;0.88;;
37237;SDS011;23129;49.662;8.448;2023-07-29T11:21:02;2.25;;;1.10;;
37237;SDS011;23129;49.662;8.448;2023-07-29T11:23:32;0.90;;;0.90;;
37237;SDS011;23129;49.662;8.448;2023-07-29T11:26:02;4.10;;;1.05;;
37237;SDS011;23129;49.662;8.448;2023-07-29T11:28:37;5.25;;;0.95;;
37237;SDS011;23129;49.662;8.448;2023-07-29T11:31:07;1.23;;;0.70;;
37237;SDS011;23129;49.662;8.448;2023-07-29T11:33:38;4.80;;;0.75;;
37237;SDS011;23129;49.662;8.448;2023-07-29T11:36:16;1.10;;;0.98;;
37237;SDS011;23129;49.662;8.448;2023-07-29T11:38:46;1.30;;;0.85;;
37237;SDS011;23129;49.662;8.448;2023-07-29T11:41:18;0.90;;;0.90;;
37237;SDS011;23129;49.662;8.448;2023-07-29T11:43:48;1.25;;;1.10;;
37237;SDS011;23129;49.662;8.448;2023-07-29T11:46:20;1.27;;;1.15;;
37237;SDS011;23129;49.662;8.448;2023-07-29T11:48:53;0.55;;;0.55;;
37237;SDS011;23129;49.662;8.448;2023-07-29T11:51:22;2.03;;;0.90;;
37237;SDS011;23129;49.662;8.448;2023-07-29T11:53:52;1.42;;;0.90;;
37237;SDS011;23129;49.662;8.448;2023-07-29T11:56:21;1.33;;;0.80;;
37237;SDS011;23129;49.662;8.448;2023-07-29T11:58:51;0.63;;;0.63;;
37237;SDS011;23129;49.662;8.448;2023-07-29T12:01:20;3.08;;;1.05;;
37237;SDS011;23129;49.662;8.448;2023-07-29T12:03:51;0.50;;;0.50;;
37237;SDS011;23129;49.662;8.448;2023-07-29T12:06:20;1.75;;;0.73;;
37237;SDS011;23129;49.662;8.448;2023-07-29T12:08:50;0.93;;;0.85;;
37237;SDS011;23129;49.662;8.448;2023-07-29T12:11:19;0.70;;;0.70;;
37237;SDS011;23129;49.662;8.448;2023-07-29T12:13:48;0.98;;;0.70;;
37237;SDS011;23129;49.662;8.448;2023-07-29T12:16:17;0.95;;;0.95;;
37237;SDS011;23129;49.662;8.448;2023-07-29T12:18:45;0.77;;;0.77;;
37237;SDS011;23129;49.662;8.448;2023-07-29T12:21:18;0.60;;;0.60;;
37237;SDS011;23129;49.662;8.448;2023-07-29T12:23:46;4.65;;;0.88;;
37237;SDS011;23129;49.662;8.448;2023-07-29T12:26:17;4.32;;;0.70;;
37237;SDS011;23129;49.662;8.448;2023-07-29T12:28:46;1.90;;;0.82;;
37237;SDS011;23129;49.662;8.448;2023-07-29T12:31:14;1.20;;;0.75;;
37237;SDS011;23129;49.662;8.448;2023-07-29T12:33:43;1.00;;;0.77;;
37237;SDS011;23129;49.662;8.448;2023-07-29T12:36:11;0.50;;;0.50;;
37237;SDS011;23129;49.662;8.448;2023-07-29T12:38:43;4.15;;;0.68;;
37237;SDS011;23129;49.662;8.448;2023-07-29T12:41:13;1.00;;;0.85;;
37237;SDS011;23129;49.662;8.448;2023-07-29T12:43:41;1.20;;;1.08;;
37237;SDS011;23129;49.662;8.448;2023-07-29T12:46:10;1.42;;;0.88;;
37237;SDS011;23129;49.662;8.448;2023-07-29T12:48:39;0.50;;;0.50;;
37237;SDS011;23129;49.662;8.448;2023-07-29T12:51:07;1.67;;;0.60;;
37237;SDS011;23129;49.662;8.448;2023-07-29T12:53:35;1.48;;;0.95;;
37237;SDS011;23129;49.662;8.448;2023-07-29T12:56:06;2.65;;;0.70;;
37237;SDS011;23129;49.662;8.448;2023-07-29T12:58:34;1.08;;;0.90;;
37237;SDS011;23129;49.662;8.448;2023-07-29T13:01:03;1.25;;;0.68;;
37237;SDS011;23129;49.662;8.448;2023-07-29T13:03:31;0.65;;;0.65;;
37237;SDS011;23129;49.662;8.448;2023-07-29T13:06:00;1.35;;;0.65;;
37237;SDS011;23129;49.662;8.448;2023-07-29T13:08:29;1.23;;;0.90;;
37237;SDS011;23129;49.662;8.448;2023-07-29T13:10:58;3.42;;;0.70;;
37237;SDS011;23129;49.662;8.448;2023-07-29T13:13:28;0.70;;;0.70;;
37237;SDS011;23129;49.662;8.448;2023-07-29T13:15:56;0.75;;;0.75;;
37237;SDS011;23129;49.662;8.448;2023-07-29T13:18:28;2.63;;;0.70;;
37237;SDS011;23129;49.662;8.448;2023-07-29T13:20:56;1.10;;;1.00;;
37237;SDS011;23129;49.662;8.448;2023-07-29T13:23:26;0.98;;;0.75;;
37237;SDS011;23129;49.662;8.448;2023-07-29T13:25:56;0.70;;;0.70;;
37237;SDS011;23129;49.662;8.448;2023-07-29T13:28:24;0.70;;;0.70;;
37237;SDS011;23129;49.662;8.448;2023-07-29T13:30:54;0.50;;;0.50;;
37237;SDS011;23129;49.662;8.448;2023-07-29T13:33:23;1.58;;;0.88;;
37237;SDS011;23129;49.662;8.448;2023-07-29T13:35:51;1.55;;;0.80;;
37237;SDS011;23129;49.662;8.448;2023-07-29T13:38:20;1.00;;;0.60;;
37237;SDS011;23129;49.662;8.448;2023-07-29T13:40:49;0.95;;;0.95;;
37237;SDS011;23129;49.662;8.448;2023-07-29T13:43:18;0.82;;;0.80;;
37237;SDS011;23129;49.662;8.448;2023-07-29T13:45:46;0.85;;;0.85;;
37237;SDS011;23129;49.662;8.448;2023-07-29T13:48:18;0.70;;;0.65;;
37237;SDS011;23129;49.662;8.448;2023-07-29T13:50:46;1.15;;;0.57;;
37237;SDS011;23129;49.662;8.448;2023-07-29T13:53:15;3.15;;;0.75;;
37237;SDS011;23129;49.662;8.448;2023-07-29T13:55:43;2.83;;;0.98;;
37237;SDS011;23129;49.662;8.448;2023-07-29T13:58:12;0.85;;;0.80;;
37237;SDS011;23129;49.662;8.448;2023-07-29T14:00:41;0.68;;;0.55;;
37237;SDS011;23129;49.662;8.448;2023-07-29T14:03:09;4.70;;;1.08;;
37237;SDS011;23129;49.662;8.448;2023-07-29T14:05:39;0.98;;;0.98;;
37237;SDS011;23129;49.662;8.448;2023-07-29T14:08:08;2.60;;;0.88;;
37237;SDS011;23129;49.662;8.448;2023-07-29T14:10:36;0.95;;;0.95;;
37237;SDS011;23129;49.662;8.448;2023-07-29T14:13:04;0.80;;;0.80;;
37237;SDS011;23129;49.662;8.448;2023-07-29T14:15:33;1.40;;;0.82;;
37237;SDS011;23129;49.662;8.448;2023-07-29T14:18:02;0.90;;;0.80;;
37237;SDS011;23129;49.662;8.448;2023-07-29T14:20:30;1.00;;;0.88;;
37237;SDS011;23129;49.662;8.448;2023-07-29T14:23:00;0.60;;;0.60;;
37237;SDS011;23129;49.662;8.448;2023-07-29T14:25:28;4.30;;;0.85;;
37237;SDS011;23129;49.662;8.448;2023-07-29T14:27:57;2.05;;;0.85;;
37237;SDS011;23129;49.662;8.448;2023-07-29T14:30:25;4.32;;;1.10;;
37237;SDS011;23129;49.662;8.448;2023-07-29T14:32:54;1.25;;;0.93;;
37237;SDS011;23129;49.662;8.448;2023-07-29T14:35:22;0.82;;;0.63;;
37237;SDS011;23129;49.662;8.448;2023-07-29T14:37:51;1.15;;;0.98;;
37237;SDS011;23129;49.662;8.448;2023-07-29T14:40:20;3.08;;;0.90;;
37237;SDS011;23129;49.662;8.448;2023-07-29T14:42:49;3.58;;;1.10;;
37237;SDS011;23129;49.662;8.448;2023-07-29T14:45:19;1.45;;;0.82;;
37237;SDS011;23129;49.662;8.448;2023-07-29T14:47:48;6.28;;;1.13;;
37237;SDS011;23129;49.662;8.448;2023-07-29T14:50:16;1.30;;;1.20;;
37237;SDS011;23129;49.662;8.448;2023-07-29T14:52:45;2.28;;;1.00;;
37237;SDS011;23129;49.662;8.448;2023-07-29T14:55:13;0.95;;;0.80;;
37237;SDS011;23129;49.662;8.448;2023-07-29T14:57:43;1.25;;;1.10;;
37237;SDS011;23129;49.662;8.448;2023-07-29T15:00:12;1.80;;;0.80;;
37237;SDS011;23129;49.662;8.448;2023-07-29T15:02:40;0.85;;;0.82;;
37237;SDS011;23129;49.662;8.448;2023-07-29T15:05:09;0.90;;;0.90;;